createdAt,value
2022-10-17T00:02:48.443Z,101357.34
2022-10-17T00:05:51.503Z,101363.78
2022-10-17T00:08:54.031Z,101361.78
2022-10-17T00:11:56.809Z,101362.69
2022-10-17T00:14:59.704Z,101367.81
2022-10-17T00:18:02.725Z,101358.84
2022-10-17T00:21:05.489Z,101371.56
2022-10-17T00:24:08.366Z,101368.75
2022-10-17T00:27:10.899Z,101360.97
2022-10-17T00:30:15.832Z,101364.12
2022-10-17T00:33:18.326Z,101361.53
2022-10-17T00:36:24.686Z,101358.69
2022-10-17T00:39:27.283Z,101368.28
2022-10-17T00:42:30.512Z,101362.69
2022-10-17T00:45:33.486Z,101359.41
2022-10-17T00:48:36.290Z,101360.34
2022-10-17T00:51:44.011Z,101363.41
2022-10-17T00:54:52.073Z,101360.38
2022-10-17T00:57:55.597Z,101355.66
2022-10-17T01:00:58.995Z,101359.00
2022-10-17T01:04:01.642Z,101358.47
2022-10-17T01:07:04.877Z,101350.78
2022-10-17T01:10:08.806Z,101360.28
2022-10-17T01:13:16.491Z,101359.34
2022-10-17T01:16:26.962Z,101362.09
2022-10-17T01:19:38.424Z,101354.97
2022-10-17T01:22:49.344Z,101351.16
2022-10-17T01:26:07.106Z,101350.41
2022-10-17T01:29:09.832Z,101352.28
2022-10-17T01:32:22.067Z,101353.72
2022-10-17T01:35:34.144Z,101352.88
2022-10-17T01:38:50.809Z,101354.38
2022-10-17T01:42:01.969Z,101358.94
2022-10-17T01:45:14.079Z,101358.72
2022-10-17T01:48:22.380Z,101355.31
2022-10-17T01:51:31.405Z,101355.22
2022-10-17T01:54:42.670Z,101361.38
2022-10-17T01:57:50.544Z,101352.69
2022-10-17T02:00:54.951Z,101351.81
2022-10-17T02:03:59.508Z,101359.28
2022-10-17T02:07:10.830Z,101357.56
2022-10-17T02:10:25.323Z,101360.03
2022-10-17T02:13:33.676Z,101360.22
2022-10-17T02:17:01.240Z,101364.09
2022-10-17T02:20:16.120Z,101367.69
2022-10-17T02:23:28.155Z,101371.19
2022-10-17T02:26:40.386Z,101376.88
2022-10-17T02:30:12.567Z,101365.91
2022-10-17T02:33:30.953Z,101371.66
2022-10-17T02:36:39.098Z,101368.56
2022-10-17T02:39:44.148Z,101375.25
2022-10-17T02:42:48.675Z,101373.53
2022-10-17T02:45:52.712Z,101377.81
2022-10-17T02:49:01.742Z,101377.03
2022-10-17T02:52:12.514Z,101386.66
2022-10-17T02:55:23.235Z,101390.63
2022-10-17T02:58:32.933Z,101386.28
2022-10-17T03:01:37.005Z,101383.63
2022-10-17T03:04:43.517Z,101393.06
2022-10-17T03:07:46.225Z,101394.31
2022-10-17T03:10:49.230Z,101396.09
2022-10-17T03:13:53.997Z,101395.16
2022-10-17T03:16:57.257Z,101398.56
2022-10-17T03:20:01.014Z,101391.03
2022-10-17T03:23:05.596Z,101392.91
2022-10-17T03:26:10.293Z,101405.91
2022-10-17T03:29:14.133Z,101395.91
2022-10-17T03:32:17.600Z,101396.94
2022-10-17T03:35:20.773Z,101400.09
2022-10-17T03:38:24.099Z,101407.25
2022-10-17T03:41:27.840Z,101407.25
2022-10-17T03:44:30.575Z,101420.34
2022-10-17T03:47:34.473Z,101437.16
2022-10-17T03:50:37.756Z,101422.12
2022-10-17T03:53:40.731Z,101423.75
2022-10-17T03:56:44.021Z,101432.03
2022-10-17T03:59:47.566Z,101431.72
2022-10-17T04:02:50.365Z,101433.50
2022-10-17T04:05:53.740Z,101434.78
2022-10-17T04:08:56.599Z,101440.44
2022-10-17T04:12:00.300Z,101446.06
2022-10-17T04:15:03.380Z,101448.19
2022-10-17T04:18:06.385Z,101454.22
2022-10-17T04:21:11.196Z,101453.28
2022-10-17T04:24:14.380Z,101446.13
2022-10-17T04:27:17.584Z,101450.47
2022-10-17T04:30:22.841Z,101452.78
2022-10-17T04:33:26.188Z,101467.53
2022-10-17T04:36:29.175Z,101472.88
2022-10-17T04:39:31.884Z,101465.31
2022-10-17T04:42:34.842Z,101462.16
2022-10-17T04:45:37.765Z,101470.69
2022-10-17T04:48:42.004Z,101468.22
2022-10-17T04:51:45.595Z,101460.66
2022-10-17T04:54:48.827Z,101457.41
2022-10-17T04:57:51.520Z,101472.56
2022-10-17T05:00:56.082Z,101471.47
2022-10-17T05:03:59.134Z,101482.09
2022-10-17T05:07:03.571Z,101480.63
2022-10-17T05:10:07.743Z,101489.22
2022-10-17T05:13:11.958Z,101486.59
2022-10-17T05:16:15.939Z,101488.88
2022-10-17T05:19:18.910Z,101488.16
2022-10-17T05:22:21.852Z,101490.50
2022-10-17T05:25:24.834Z,101501.63
2022-10-17T05:28:27.776Z,101500.19
2022-10-17T05:31:32.721Z,101510.38
2022-10-17T05:34:35.247Z,101513.16
2022-10-17T05:37:38.283Z,101518.16
2022-10-17T05:40:41.285Z,101525.19
2022-10-17T05:43:45.446Z,101525.34
2022-10-17T05:46:49.858Z,101539.75
2022-10-17T05:49:52.954Z,101539.63
2022-10-17T05:52:55.943Z,101534.84
2022-10-17T05:56:01.198Z,101547.12
2022-10-17T05:59:05.532Z,101542.50
2022-10-17T06:02:12.322Z,101553.00
2022-10-17T06:05:15.691Z,101547.66
2022-10-17T06:08:18.888Z,101566.88
2022-10-17T06:11:21.841Z,101562.63
2022-10-17T06:14:24.382Z,101569.37
2022-10-17T06:17:28.227Z,101570.84
2022-10-17T06:20:30.848Z,101581.66
2022-10-17T06:23:34.406Z,101579.75
2022-10-17T06:26:38.086Z,101582.16
2022-10-17T06:29:42.050Z,101590.78
2022-10-17T06:32:44.697Z,101592.50
2022-10-17T06:35:52.943Z,101589.25
2022-10-17T06:38:55.846Z,101601.34
2022-10-17T06:42:01.213Z,101606.53
2022-10-17T06:45:11.260Z,101598.91
2022-10-17T06:48:14.876Z,101611.44
2022-10-17T06:51:17.573Z,101620.75
2022-10-17T06:54:20.946Z,101621.50
2022-10-17T06:57:23.864Z,101626.78
2022-10-17T07:00:27.084Z,101628.22
2022-10-17T07:03:30.371Z,101622.56
2022-10-17T07:06:34.156Z,101623.28
2022-10-17T07:09:37.525Z,101629.91
2022-10-17T07:12:40.471Z,101629.72
2022-10-17T07:15:43.731Z,101635.78
2022-10-17T07:18:49.528Z,101630.34
2022-10-17T07:21:52.744Z,101631.09
2022-10-17T07:24:55.885Z,101639.91
2022-10-17T07:27:59.983Z,101634.44
2022-10-17T07:31:08.752Z,101639.87
2022-10-17T07:34:12.063Z,101637.94
2022-10-17T07:37:15.057Z,101641.19
2022-10-17T07:40:21.302Z,101639.84
2022-10-17T07:43:25.797Z,101645.16
2022-10-17T07:46:29.823Z,101644.34
2022-10-17T07:49:32.878Z,101643.97
2022-10-17T07:52:35.747Z,101650.06
2022-10-17T07:55:39.560Z,101643.56
2022-10-17T07:58:42.895Z,101650.87
2022-10-17T08:01:45.859Z,101652.03
2022-10-17T08:04:48.701Z,101650.69
2022-10-17T08:07:51.296Z,101652.34
2022-10-17T08:10:55.561Z,101654.53
2022-10-17T08:13:58.472Z,101658.44
2022-10-17T08:17:01.520Z,101666.97
2022-10-17T08:20:05.712Z,101662.97
2022-10-17T08:23:08.720Z,101668.81
2022-10-17T08:26:13.531Z,101666.50
2022-10-17T08:29:17.142Z,101672.81
2022-10-17T08:32:25.803Z,101678.56
2022-10-17T08:35:29.298Z,101672.59
2022-10-17T08:38:35.330Z,101676.72
2022-10-17T08:41:54.141Z,101673.66
2022-10-17T08:45:02.958Z,101667.03
2022-10-17T08:48:12.681Z,101665.41
2022-10-17T08:51:30.284Z,101667.84
2022-10-17T08:54:40.581Z,101662.53
2022-10-17T08:57:43.836Z,101668.09
2022-10-17T09:01:17.793Z,101667.75
2022-10-17T09:04:51.643Z,101665.00
2022-10-17T09:08:16.061Z,101666.22
2022-10-17T09:11:27.509Z,101665.81
2022-10-17T09:14:45.638Z,101667.31
2022-10-17T09:17:58.208Z,101665.41
2022-10-17T09:21:22.721Z,101663.97
2022-10-17T09:24:36.501Z,101671.31
2022-10-17T09:28:21.425Z,101667.50
2022-10-17T09:31:29.305Z,101663.97
2022-10-17T09:34:34.741Z,101658.69
2022-10-17T09:37:38.114Z,101663.66
2022-10-17T09:40:41.310Z,101658.50
2022-10-17T09:43:43.944Z,101664.13
2022-10-17T09:47:02.925Z,101662.12
2022-10-17T09:50:15.013Z,101667.22
2022-10-17T09:53:30.931Z,101659.50
2022-10-17T09:56:57.988Z,101656.75
2022-10-17T10:00:04.903Z,101663.75
2022-10-17T10:03:21.926Z,101650.63
2022-10-17T10:06:24.731Z,101658.31
2022-10-17T10:09:30.820Z,101660.84
2022-10-17T10:12:37.837Z,101658.47
2022-10-17T10:15:41.414Z,101660.78
2022-10-17T10:18:47.432Z,101641.94
2022-10-17T10:22:01.990Z,101653.06
2022-10-17T10:25:14.766Z,101655.56
2022-10-17T10:28:17.786Z,101653.69
2022-10-17T10:31:28.567Z,101644.47
2022-10-17T10:34:32.558Z,101647.50
2022-10-17T10:37:44.702Z,101642.78
2022-10-17T10:40:54.539Z,101644.03
2022-10-17T10:43:57.660Z,101639.50
2022-10-17T10:47:22.674Z,101652.28
2022-10-17T10:51:09.502Z,101637.00
2022-10-17T10:54:55.476Z,101633.28
2022-10-17T10:58:03.953Z,101637.91
2022-10-17T11:01:16.793Z,101634.41
2022-10-17T11:04:23.637Z,101633.75
2022-10-17T11:07:46.731Z,101622.41
2022-10-17T11:11:08.310Z,101629.31
2022-10-17T11:14:25.016Z,101623.59
2022-10-17T11:17:46.090Z,101625.88
2022-10-17T11:21:04.458Z,101624.25
2022-10-17T11:24:20.570Z,101625.28
2022-10-17T11:27:24.853Z,101618.03
2022-10-17T11:30:46.783Z,101616.19
2022-10-17T11:34:04.554Z,101608.91
2022-10-17T11:37:16.426Z,101612.81
2022-10-17T11:40:25.574Z,101607.47
2022-10-17T11:44:01.182Z,101603.00
2022-10-17T11:47:18.652Z,101597.62
2022-10-17T11:54:24.697Z,101590.94
2022-10-17T11:57:41.148Z,101596.72
2022-10-17T12:00:57.919Z,101591.25
2022-10-17T12:04:30.730Z,101588.38
2022-10-17T12:07:49.383Z,101587.22
2022-10-17T12:11:01.135Z,101587.38
2022-10-17T12:14:29.944Z,101587.13
2022-10-17T12:17:39.344Z,101586.19
2022-10-17T12:20:43.117Z,101585.16
2022-10-17T12:23:56.042Z,101576.84
2022-10-17T12:26:58.768Z,101570.53
2022-10-17T12:30:16.766Z,101570.56
2022-10-17T12:33:22.957Z,101560.16
2022-10-17T12:36:25.808Z,101560.38
2022-10-17T12:39:28.910Z,101559.84
2022-10-17T12:42:33.558Z,101562.53
2022-10-17T12:45:47.696Z,101556.22
2022-10-17T12:49:04.601Z,101551.72
2022-10-17T12:52:17.640Z,101551.50
2022-10-17T12:55:24.643Z,101551.44
2022-10-17T12:58:27.330Z,101553.69
2022-10-17T13:01:33.217Z,101549.44
2022-10-17T13:04:36.856Z,101547.06
2022-10-17T13:07:42.545Z,101552.28
2022-10-17T13:10:51.629Z,101546.19
2022-10-17T13:13:59.231Z,101537.56
2022-10-17T13:17:04.437Z,101542.31
2022-10-17T13:20:28.914Z,101539.09
2022-10-17T13:23:36.844Z,101534.47
2022-10-17T13:26:45.666Z,101531.56
2022-10-17T13:29:48.149Z,101528.81
2022-10-17T13:32:51.197Z,101533.16
2022-10-17T13:36:00.310Z,101537.56
2022-10-17T13:39:12.468Z,101535.44
2022-10-17T13:42:32.200Z,101529.56
2022-10-17T13:45:38.318Z,101532.41
2022-10-17T13:48:41.801Z,101535.25
2022-10-17T13:51:46.992Z,101529.31
2022-10-17T13:54:52.307Z,101524.00
2022-10-17T13:57:55.178Z,101526.41
2022-10-17T14:00:58.221Z,101529.31
2022-10-17T14:04:19.464Z,101530.16
2022-10-17T14:08:05.540Z,101532.16
2022-10-17T14:11:02.828Z,101528.13
2022-10-17T14:14:20.760Z,101526.31
2022-10-17T14:17:29.374Z,101517.31
2022-10-17T14:21:08.140Z,101513.88
2022-10-17T14:24:24.655Z,101519.47
2022-10-17T14:27:27.662Z,101515.59
2022-10-17T14:30:56.856Z,101519.25
2022-10-17T14:34:03.302Z,101515.94
2022-10-17T14:37:14.853Z,101509.41
2022-10-17T14:40:25.398Z,101520.00
2022-10-17T14:43:30.732Z,101518.37
2022-10-17T14:46:36.729Z,101522.41
2022-10-17T14:49:41.059Z,101516.78
2022-10-17T14:53:02.563Z,101523.28
2022-10-17T14:56:23.543Z,101517.41
2022-10-17T14:59:52.266Z,101520.50
2022-10-17T15:02:51.430Z,101519.09
2022-10-17T15:05:56.002Z,101519.59
2022-10-17T15:08:59.675Z,101509.00
2022-10-17T15:12:07.193Z,101506.62
2022-10-17T15:15:10.395Z,101507.22
2022-10-17T15:18:14.722Z,101514.28
2022-10-17T15:21:26.683Z,101513.19
2022-10-17T15:24:40.148Z,101511.25
2022-10-17T15:27:43.126Z,101510.97
2022-10-17T15:30:46.050Z,101524.38
2022-10-17T15:33:49.775Z,101522.69
2022-10-17T15:36:54.043Z,101519.75
2022-10-17T15:39:56.871Z,101526.06
2022-10-17T15:43:02.790Z,101523.97
2022-10-17T15:46:12.130Z,101521.44
2022-10-17T15:49:18.259Z,101527.50
2022-10-17T15:52:22.259Z,101533.00
2022-10-17T15:55:25.315Z,101533.38
2022-10-17T15:58:35.701Z,101539.44
2022-10-17T16:01:39.687Z,101541.72
2022-10-17T16:04:43.228Z,101548.69
2022-10-17T16:07:46.822Z,101547.97
2022-10-17T16:10:50.440Z,101548.09
2022-10-17T16:13:55.861Z,101557.09
2022-10-17T16:17:00.658Z,101557.62
2022-10-17T16:20:03.483Z,101559.13
2022-10-17T16:23:08.443Z,101553.44
2022-10-17T16:26:14.074Z,101554.69
2022-10-17T16:29:17.131Z,101565.41
2022-10-17T16:32:20.349Z,101563.94
2022-10-17T16:35:25.929Z,101558.81
2022-10-17T16:38:28.794Z,101564.41
2022-10-17T16:41:35.962Z,101569.28
2022-10-17T16:44:41.800Z,101567.31
2022-10-17T16:47:45.042Z,101570.53
2022-10-17T16:50:47.871Z,101572.25
2022-10-17T16:53:55.473Z,101574.53
2022-10-17T16:56:58.234Z,101575.31
2022-10-17T17:00:01.367Z,101581.28
2022-10-17T17:03:04.164Z,101578.75
2022-10-17T17:06:09.006Z,101579.03
2022-10-17T17:09:11.523Z,101577.25
2022-10-17T17:12:14.341Z,101576.66
2022-10-17T17:15:17.088Z,101579.47
2022-10-17T17:18:27.743Z,101578.25
2022-10-17T17:21:31.732Z,101574.03
2022-10-17T17:24:34.874Z,101583.88
2022-10-17T17:27:48.922Z,101583.16
2022-10-17T17:30:56.952Z,101586.75
2022-10-17T17:34:04.809Z,101585.19
2022-10-17T17:37:09.478Z,101589.09
2022-10-17T17:40:14.525Z,101590.91
2022-10-17T17:43:17.603Z,101587.53
2022-10-17T17:46:22.428Z,101584.84
2022-10-17T17:49:25.406Z,101580.38
2022-10-17T17:52:29.793Z,101582.56
2022-10-17T17:55:33.590Z,101577.69
2022-10-17T17:58:38.370Z,101576.72
2022-10-17T18:01:41.715Z,101578.44
2022-10-17T18:04:44.630Z,101578.41
2022-10-17T18:07:47.193Z,101578.28
2022-10-17T18:10:54.542Z,101579.28
2022-10-17T18:14:00.101Z,101572.28
2022-10-17T18:17:06.807Z,101578.91
2022-10-17T18:20:10.276Z,101578.34
2022-10-17T18:23:14.303Z,101580.62
2022-10-17T18:26:17.065Z,101574.94
2022-10-17T18:29:20.616Z,101576.47
2022-10-17T18:32:23.226Z,101577.31
2022-10-17T18:35:26.436Z,101571.12
2022-10-17T18:38:29.484Z,101577.84
2022-10-17T18:41:33.705Z,101573.78
2022-10-17T18:44:36.531Z,101572.09
2022-10-17T18:47:44.492Z,101573.69
2022-10-17T18:50:47.301Z,101571.78
2022-10-17T18:53:52.989Z,101570.72
2022-10-17T18:56:56.758Z,101575.41
2022-10-17T18:59:59.793Z,101579.50
2022-10-17T19:03:04.982Z,101579.03
2022-10-17T19:06:09.750Z,101575.25
2022-10-17T19:09:14.201Z,101574.59
2022-10-17T19:12:19.773Z,101569.19
2022-10-17T19:15:25.173Z,101572.13
2022-10-17T19:18:29.232Z,101575.66
2022-10-17T19:21:32.545Z,101575.59
2022-10-17T19:24:35.731Z,101575.38
2022-10-17T19:27:40.955Z,101573.91
2022-10-17T19:30:44.121Z,101567.38
2022-10-17T19:33:48.005Z,101573.25
2022-10-17T19:36:51.711Z,101571.12
2022-10-17T19:39:54.453Z,101568.06
2022-10-17T19:42:58.168Z,101571.34
2022-10-17T19:46:03.523Z,101569.84
2022-10-17T19:49:07.326Z,101571.12
2022-10-17T19:52:09.795Z,101573.81
2022-10-17T19:55:12.630Z,101564.66
2022-10-17T19:58:15.375Z,101571.41
2022-10-17T20:01:21.837Z,101566.59
2022-10-17T20:04:24.882Z,101579.88
2022-10-17T20:07:27.432Z,101572.69
2022-10-17T20:10:34.153Z,101569.28
2022-10-17T20:13:37.884Z,101577.78
2022-10-17T20:16:41.542Z,101566.72
2022-10-17T20:19:44.476Z,101571.34
2022-10-17T20:22:47.575Z,101572.53
2022-10-17T20:26:06.767Z,101573.56
2022-10-17T20:29:19.789Z,101568.28
2022-10-17T20:32:22.281Z,101570.06
2022-10-17T20:35:25.056Z,101570.31
2022-10-17T20:38:27.603Z,101573.16
2022-10-17T20:41:30.383Z,101568.41
2022-10-17T20:44:33.028Z,101571.50
2022-10-17T20:47:45.974Z,101571.25
2022-10-17T20:50:51.927Z,101572.09
2022-10-17T20:53:54.820Z,101565.75
2022-10-17T20:56:59.888Z,101570.41
2022-10-17T21:00:08.325Z,101568.72
2022-10-17T21:03:11.817Z,101577.22
2022-10-17T21:06:16.723Z,101572.75
2022-10-17T21:09:20.486Z,101564.38
2022-10-17T21:12:36.624Z,101568.19
2022-10-17T21:15:45.871Z,101563.00
2022-10-17T21:18:51.846Z,101571.69
2022-10-17T21:21:54.585Z,101565.97
2022-10-17T21:24:57.619Z,101578.50
2022-10-17T21:28:00.114Z,101568.91
2022-10-17T21:31:14.428Z,101571.06
2022-10-17T21:34:24.632Z,101566.50
2022-10-17T21:37:30.059Z,101566.69
2022-10-17T21:40:32.806Z,101559.37
2022-10-17T21:43:36.885Z,101565.53
2022-10-17T21:46:39.574Z,101557.66
2022-10-17T21:49:42.736Z,101567.69
2022-10-17T21:52:45.453Z,101563.72
2022-10-17T21:55:48.178Z,101562.69
2022-10-17T21:58:51.661Z,101558.28
2022-10-17T22:01:54.580Z,101566.47
2022-10-17T22:04:57.522Z,101555.87
2022-10-17T22:08:00.716Z,101562.50
2022-10-17T22:11:09.095Z,101560.75
2022-10-17T22:14:14.136Z,101559.78
2022-10-17T22:17:17.193Z,101553.44
2022-10-17T22:20:20.428Z,101560.28
2022-10-17T22:23:23.621Z,101558.19
2022-10-17T22:26:28.156Z,101548.81
2022-10-17T22:29:31.020Z,101553.47
2022-10-17T22:32:34.124Z,101548.53
2022-10-17T22:35:36.975Z,101545.19
2022-10-17T22:38:39.430Z,101546.69
2022-10-17T22:41:43.373Z,101541.31
2022-10-17T22:44:46.684Z,101541.69
2022-10-17T22:47:49.655Z,101551.22
2022-10-17T22:50:54.143Z,101548.69
2022-10-17T22:53:56.985Z,101544.12
2022-10-17T22:56:59.511Z,101546.44
2022-10-17T23:00:02.421Z,101554.72
2022-10-17T23:03:05.154Z,101550.59
2022-10-17T23:06:08.151Z,101544.63
2022-10-17T23:09:13.688Z,101546.81
2022-10-17T23:12:16.675Z,101545.09
2022-10-17T23:15:19.882Z,101539.44
2022-10-17T23:18:24.426Z,101538.56
2022-10-17T23:21:28.480Z,101533.22
2022-10-17T23:24:31.583Z,101527.38
2022-10-17T23:27:35.657Z,101531.09
2022-10-17T23:30:40.076Z,101525.84
2022-10-17T23:33:45.059Z,101520.03
2022-10-17T23:36:48.093Z,101522.75
2022-10-17T23:39:50.774Z,101523.47
2022-10-17T23:42:53.659Z,101522.38
2022-10-17T23:45:56.077Z,101519.75
2022-10-17T23:48:59.209Z,101519.19
2022-10-17T23:52:02.536Z,101509.38
2022-10-17T23:55:05.987Z,101511.97
2022-10-17T23:58:08.597Z,101517.06
